sensor_id;sensor_type;location;lat;lon;timestamp;pressure;altitude;pressure_sealevel;temperature;humidity
24892;BME280;12954;50.688;10.908;2022-09-21T00:01:37;96435.72;;;5.69;63.13
24892;BME280;12954;50.688;10.908;2022-09-21T00:04:05;96429.28;;;5.70;63.40
24892;BME280;12954;50.688;10.908;2022-09-21T00:06:34;96384.41;;;5.42;63.08
24892;BME280;12954;50.688;10.908;2022-09-21T00:09:03;96428.72;;;5.68;63.24
24892;BME280;12954;50.688;10.908;2022-09-21T00:11:35;96403.41;;;5.52;63.31
24892;BME280;12954;50.688;10.908;2022-09-21T00:14:07;96431.16;;;5.69;62.99
24892;BME280;12954;50.688;10.908;2022-09-21T00:16:37;96422.78;;;5.66;63.17
24892;BME280;12954;50.688;10.908;2022-09-21T00:19:06;96404.81;;;5.54;63.21
24892;BME280;12954;50.688;10.908;2022-09-21T00:21:35;96424.84;;;5.64;63.27
24892;BME280;12954;50.688;10.908;2022-09-21T00:24:04;96431.84;;;5.65;63.32
24892;BME280;12954;50.688;10.908;2022-09-21T00:26:33;96431.84;;;5.65;63.33
24892;BME280;12954;50.688;10.908;2022-09-21T00:29:04;96424.84;;;5.64;63.23
24892;BME280;12954;50.688;10.908;2022-09-21T00:31:33;96412.81;;;5.54;63.25
24892;BME280;12954;50.688;10.908;2022-09-21T00:34:01;96302.31;;;4.83;63.40
24892;BME280;12954;50.688;10.908;2022-09-21T00:36:33;96437.66;;;5.62;63.25
24892;BME280;12954;50.688;10.908;2022-09-21T00:39:02;96437.53;;;5.56;63.29
24892;BME280;12954;50.688;10.908;2022-09-21T00:41:32;96436.91;;;5.54;63.73
24892;BME280;12954;50.688;10.908;2022-09-21T00:44:27;96437.75;;;5.55;63.36
24892;BME280;12954;50.688;10.908;2022-09-21T00:47:02;96405.91;;;5.35;63.53
24892;BME280;12954;50.688;10.908;2022-09-21T00:49:32;96435.31;;;5.53;63.31
24892;BME280;12954;50.688;10.908;2022-09-21T00:52:02;96437.53;;;5.56;63.45
24892;BME280;12954;50.688;10.908;2022-09-21T00:54:36;96386.31;;;5.23;63.11
24892;BME280;12954;50.688;10.908;2022-09-21T00:57:06;96440.28;;;5.50;63.56
24892;BME280;12954;50.688;10.908;2022-09-21T00:59:38;96437.81;;;5.48;63.47
24892;BME280;12954;50.688;10.908;2022-09-21T01:02:07;96434.00;;;5.44;63.79
24892;BME280;12954;50.688;10.908;2022-09-21T01:04:37;96394.75;;;5.09;63.74
24892;BME280;12954;50.688;10.908;2022-09-21T01:07:10;96437.31;;;5.40;63.85
24892;BME280;12954;50.688;10.908;2022-09-21T01:09:39;96430.34;;;5.39;63.96
24892;BME280;12954;50.688;10.908;2022-09-21T01:12:22;96428.47;;;5.39;63.92
24892;BME280;12954;50.688;10.908;2022-09-21T01:14:58;96437.72;;;5.25;64.29
24892;BME280;12954;50.688;10.908;2022-09-21T01:17:37;96429.25;;;5.28;64.14
24892;BME280;12954;50.688;10.908;2022-09-21T01:20:33;96442.34;;;5.36;63.88
24892;BME280;12954;50.688;10.908;2022-09-21T01:23:21;96432.22;;;5.38;63.97
24892;BME280;12954;50.688;10.908;2022-09-21T01:26:03;96440.81;;;5.40;63.91
24892;BME280;12954;50.688;10.908;2022-09-21T01:31:39;96429.28;;;5.40;63.27
24892;BME280;12954;50.688;10.908;2022-09-21T01:34:13;96426.13;;;5.31;63.39
24892;BME280;12954;50.688;10.908;2022-09-21T01:36:44;96413.97;;;5.17;63.12
24892;BME280;12954;50.688;10.908;2022-09-21T01:39:16;96428.66;;;5.26;63.23
24892;BME280;12954;50.688;10.908;2022-09-21T01:41:47;96428.38;;;5.16;63.23
24892;BME280;12954;50.688;10.908;2022-09-21T01:44:21;96451.34;;;5.24;62.87
24892;BME280;12954;50.688;10.908;2022-09-21T01:46:52;96450.38;;;5.18;63.27
24892;BME280;12954;50.688;10.908;2022-09-21T01:49:24;96445.69;;;5.14;63.26
24892;BME280;12954;50.688;10.908;2022-09-21T01:51:58;96447.97;;;5.10;63.23
24892;BME280;12954;50.688;10.908;2022-09-21T01:54:29;96449.69;;;5.05;63.05
24892;BME280;12954;50.688;10.908;2022-09-21T01:57:01;96450.84;;;4.97;63.51
24892;BME280;12954;50.688;10.908;2022-09-21T01:59:38;96454.25;;;5.04;63.30
24892;BME280;12954;50.688;10.908;2022-09-21T02:02:15;96447.84;;;5.05;63.30
24892;BME280;12954;50.688;10.908;2022-09-21T02:04:45;96451.09;;;5.07;63.55
24892;BME280;12954;50.688;10.908;2022-09-21T02:07:15;96451.72;;;5.09;63.39
24892;BME280;12954;50.688;10.908;2022-09-21T02:09:44;96452.75;;;5.08;63.34
24892;BME280;12954;50.688;10.908;2022-09-21T02:12:14;96447.56;;;4.95;63.53
24892;BME280;12954;50.688;10.908;2022-09-21T02:14:45;96440.72;;;4.99;63.69
24892;BME280;12954;50.688;10.908;2022-09-21T02:17:25;96451.94;;;5.08;63.39
24892;BME280;12954;50.688;10.908;2022-09-21T02:20:11;96459.13;;;5.07;63.35
24892;BME280;12954;50.688;10.908;2022-09-21T02:22:55;96451.09;;;5.07;63.45
24892;BME280;12954;50.688;10.908;2022-09-21T02:25:33;96447.41;;;5.08;63.62
24892;BME280;12954;50.688;10.908;2022-09-21T02:28:10;96449.03;;;5.09;63.44
24892;BME280;12954;50.688;10.908;2022-09-21T02:30:46;96378.19;;;4.64;63.05
24892;BME280;12954;50.688;10.908;2022-09-21T02:33:25;96423.78;;;4.87;63.28
24892;BME280;12954;50.688;10.908;2022-09-21T02:36:01;96448.28;;;5.02;63.66
24892;BME280;12954;50.688;10.908;2022-09-21T02:38:36;96447.47;;;5.01;63.43
24892;BME280;12954;50.688;10.908;2022-09-21T02:41:10;96442.34;;;5.00;63.71
24892;BME280;12954;50.688;10.908;2022-09-21T02:43:44;96442.94;;;5.02;63.39
24892;BME280;12954;50.688;10.908;2022-09-21T02:46:17;96446.22;;;5.04;63.48
24892;BME280;12954;50.688;10.908;2022-09-21T02:48:50;96409.25;;;4.83;63.05
24892;BME280;12954;50.688;10.908;2022-09-21T02:51:23;96418.88;;;4.84;63.04
24892;BME280;12954;50.688;10.908;2022-09-21T02:53:53;96425.88;;;4.85;63.35
24892;BME280;12954;50.688;10.908;2022-09-21T02:56:24;96442.22;;;4.95;63.08
24892;BME280;12954;50.688;10.908;2022-09-21T02:58:55;96457.81;;;4.98;63.03
24892;BME280;12954;50.688;10.908;2022-09-21T03:01:27;96458.84;;;4.97;63.15
24892;BME280;12954;50.688;10.908;2022-09-21T03:03:58;96448.00;;;4.92;63.56
24892;BME280;12954;50.688;10.908;2022-09-21T03:06:26;96462.34;;;4.97;63.52
24892;BME280;12954;50.688;10.908;2022-09-21T03:08:55;96457.44;;;4.94;63.04
24892;BME280;12954;50.688;10.908;2022-09-21T03:11:24;96456.69;;;4.87;63.25
24892;BME280;12954;50.688;10.908;2022-09-21T03:13:52;96454.69;;;4.83;63.24
24892;BME280;12954;50.688;10.908;2022-09-21T03:16:21;96462.53;;;4.78;63.06
24892;BME280;12954;50.688;10.908;2022-09-21T03:18:50;96458.91;;;4.72;63.32
24892;BME280;12954;50.688;10.908;2022-09-21T03:21:19;96458.56;;;4.69;63.43
24892;BME280;12954;50.688;10.908;2022-09-21T03:23:49;96455.25;;;4.67;63.34
24892;BME280;12954;50.688;10.908;2022-09-21T03:26:18;96458.91;;;4.72;63.65
24892;BME280;12954;50.688;10.908;2022-09-21T03:28:48;96470.72;;;4.65;63.05
24892;BME280;12954;50.688;10.908;2022-09-21T03:31:16;96462.63;;;4.71;63.17
24892;BME280;12954;50.688;10.908;2022-09-21T03:33:45;96467.16;;;4.71;63.26
24892;BME280;12954;50.688;10.908;2022-09-21T03:36:13;96477.84;;;4.71;62.98
24892;BME280;12954;50.688;10.908;2022-09-21T03:38:43;96470.03;;;4.69;63.12
24892;BME280;12954;50.688;10.908;2022-09-21T03:41:12;96468.19;;;4.70;63.42
24892;BME280;12954;50.688;10.908;2022-09-21T03:43:41;96466.34;;;4.70;63.07
24892;BME280;12954;50.688;10.908;2022-09-21T03:46:09;96469.25;;;4.69;63.23
24892;BME280;12954;50.688;10.908;2022-09-21T03:48:38;96467.22;;;4.64;63.00
24892;BME280;12954;50.688;10.908;2022-09-21T03:51:08;96476.50;;;4.62;63.12
24892;BME280;12954;50.688;10.908;2022-09-21T03:53:37;96483.69;;;4.61;63.26
24892;BME280;12954;50.688;10.908;2022-09-21T03:56:07;96479.59;;;4.59;63.51
24892;BME280;12954;50.688;10.908;2022-09-21T03:58:35;96479.00;;;4.57;63.33
24892;BME280;12954;50.688;10.908;2022-09-21T04:01:03;96450.59;;;4.37;63.17
24892;BME280;12954;50.688;10.908;2022-09-21T04:03:32;96477.22;;;4.51;63.58
24892;BME280;12954;50.688;10.908;2022-09-21T04:06:07;96482.28;;;4.59;63.53
24892;BME280;12954;50.688;10.908;2022-09-21T04:08:36;96482.72;;;4.56;63.55
24892;BME280;12954;50.688;10.908;2022-09-21T04:11:09;96484.56;;;4.55;63.55
24892;BME280;12954;50.688;10.908;2022-09-21T04:13:38;96494.22;;;4.56;63.60
24892;BME280;12954;50.688;10.908;2022-09-21T04:16:08;96483.75;;;4.55;63.59
24892;BME280;12954;50.688;10.908;2022-09-21T04:18:37;96490.13;;;4.54;63.73
24892;BME280;12954;50.688;10.908;2022-09-21T04:21:06;96491.41;;;4.51;63.67
24892;BME280;12954;50.688;10.908;2022-09-21T04:23:34;96488.94;;;4.50;63.94
24892;BME280;12954;50.688;10.908;2022-09-21T04:26:03;96488.72;;;4.51;63.46
24892;BME280;12954;50.688;10.908;2022-09-21T04:28:32;96485.81;;;4.53;63.64
24892;BME280;12954;50.688;10.908;2022-09-21T04:31:01;96487.47;;;4.54;63.40
24892;BME280;12954;50.688;10.908;2022-09-21T04:33:30;96494.88;;;4.52;63.06
24892;BME280;12954;50.688;10.908;2022-09-21T04:35:58;96480.31;;;4.48;63.09
24892;BME280;12954;50.688;10.908;2022-09-21T04:38:30;96461.34;;;4.31;62.97
24892;BME280;12954;50.688;10.908;2022-09-21T04:40:58;96449.94;;;4.17;63.25
24892;BME280;12954;50.688;10.908;2022-09-21T04:43:29;96483.88;;;4.41;63.14
24892;BME280;12954;50.688;10.908;2022-09-21T04:46:04;96484.69;;;4.42;63.36
24892;BME280;12954;50.688;10.908;2022-09-21T04:48:32;96491.06;;;4.41;63.60
24892;BME280;12954;50.688;10.908;2022-09-21T04:51:01;96489.22;;;4.41;63.31
24892;BME280;12954;50.688;10.908;2022-09-21T04:53:29;96485.34;;;4.37;63.19
24892;BME280;12954;50.688;10.908;2022-09-21T04:55:58;96491.94;;;4.35;63.48
24892;BME280;12954;50.688;10.908;2022-09-21T04:58:26;96472.66;;;4.26;63.30
24892;BME280;12954;50.688;10.908;2022-09-21T05:00:55;96491.34;;;4.33;63.08
24892;BME280;12954;50.688;10.908;2022-09-21T05:03:25;96473.97;;;4.17;63.32
24892;BME280;12954;50.688;10.908;2022-09-21T05:05:55;96470.09;;;4.13;62.96
24892;BME280;12954;50.688;10.908;2022-09-21T05:08:25;96492.19;;;4.27;63.20
24892;BME280;12954;50.688;10.908;2022-09-21T05:11:10;96493.44;;;4.24;63.12
24892;BME280;12954;50.688;10.908;2022-09-21T05:13:39;96452.00;;;3.90;63.33
24892;BME280;12954;50.688;10.908;2022-09-21T05:16:08;96496.34;;;4.16;63.49
24892;BME280;12954;50.688;10.908;2022-09-21T05:18:38;96500.03;;;4.22;63.28
24892;BME280;12954;50.688;10.908;2022-09-21T05:21:07;96492.66;;;4.17;63.39
24892;BME280;12954;50.688;10.908;2022-09-21T05:23:36;96504.31;;;4.23;63.62
24892;BME280;12954;50.688;10.908;2022-09-21T05:26:05;96509.47;;;4.24;63.34
24892;BME280;12954;50.688;10.908;2022-09-21T05:28:34;96502.03;;;4.26;63.50
24892;BME280;12954;50.688;10.908;2022-09-21T05:31:13;96508.41;;;4.32;63.33
24892;BME280;12954;50.688;10.908;2022-09-21T05:33:52;96511.94;;;4.19;63.92
24892;BME280;12954;50.688;10.908;2022-09-21T05:36:33;96513.75;;;4.25;64.05
24892;BME280;12954;50.688;10.908;2022-09-21T05:39:04;96516.41;;;4.32;64.08
24892;BME280;12954;50.688;10.908;2022-09-21T05:41:34;96491.00;;;4.16;63.89
24892;BME280;12954;50.688;10.908;2022-09-21T05:44:03;96525.56;;;4.42;64.05
24892;BME280;12954;50.688;10.908;2022-09-21T05:46:36;96530.84;;;4.49;63.77
24892;BME280;12954;50.688;10.908;2022-09-21T05:49:16;96530.22;;;4.54;63.63
24892;BME280;12954;50.688;10.908;2022-09-21T05:51:55;96522.34;;;4.59;63.91
24892;BME280;12954;50.688;10.908;2022-09-21T05:54:36;96523.56;;;4.63;63.93
24892;BME280;12954;50.688;10.908;2022-09-21T05:57:10;96533.16;;;4.70;64.05
24892;BME280;12954;50.688;10.908;2022-09-21T06:00:00;96529.22;;;4.73;64.00
24892;BME280;12954;50.688;10.908;2022-09-21T06:02:48;96536.22;;;4.74;64.05
24892;BME280;12954;50.688;10.908;2022-09-21T06:05:20;96533.97;;;4.71;64.27
24892;BME280;12954;50.688;10.908;2022-09-21T06:07:49;96530.81;;;4.80;64.20
24892;BME280;12954;50.688;10.908;2022-09-21T06:10:18;96466.19;;;4.40;64.21
24892;BME280;12954;50.688;10.908;2022-09-21T06:12:46;96476.78;;;4.54;64.13
24892;BME280;12954;50.688;10.908;2022-09-21T06:15:15;96536.84;;;4.94;64.28
24892;BME280;12954;50.688;10.908;2022-09-21T06:17:44;96530.00;;;4.98;64.64
24892;BME280;12954;50.688;10.908;2022-09-21T06:20:12;96525.84;;;5.02;64.34
24892;BME280;12954;50.688;10.908;2022-09-21T06:22:42;96519.22;;;5.05;64.48
24892;BME280;12954;50.688;10.908;2022-09-21T06:25:11;96526.75;;;5.14;64.50
24892;BME280;12954;50.688;10.908;2022-09-21T06:27:39;96529.78;;;5.18;64.70
24892;BME280;12954;50.688;10.908;2022-09-21T06:30:08;96527.50;;;5.21;64.77
24892;BME280;12954;50.688;10.908;2022-09-21T06:32:37;96533.56;;;5.28;64.65
24892;BME280;12954;50.688;10.908;2022-09-21T06:35:06;96515.91;;;5.27;64.90
24892;BME280;12954;50.688;10.908;2022-09-21T06:37:34;96507.00;;;5.15;64.74
24892;BME280;12954;50.688;10.908;2022-09-21T06:40:07;96531.59;;;5.42;65.04
24892;BME280;12954;50.688;10.908;2022-09-21T06:42:35;96535.22;;;5.47;65.16
24892;BME280;12954;50.688;10.908;2022-09-21T06:45:05;96530.59;;;5.54;65.12
24892;BME280;12954;50.688;10.908;2022-09-21T06:47:33;96546.38;;;5.63;65.48
24892;BME280;12954;50.688;10.908;2022-09-21T06:50:02;96513.94;;;5.52;65.15
24892;BME280;12954;50.688;10.908;2022-09-21T06:52:30;96532.34;;;5.79;65.42
24892;BME280;12954;50.688;10.908;2022-09-21T06:54:59;96541.91;;;5.86;65.39
24892;BME280;12954;50.688;10.908;2022-09-21T06:57:30;96540.56;;;5.95;65.32
24892;BME280;12954;50.688;10.908;2022-09-21T06:59:58;96542.56;;;6.00;65.37
24892;BME280;12954;50.688;10.908;2022-09-21T07:02:27;96542.47;;;6.06;65.43
24892;BME280;12954;50.688;10.908;2022-09-21T07:04:55;96544.47;;;6.11;65.69
24892;BME280;12954;50.688;10.908;2022-09-21T07:07:25;96542.75;;;6.17;65.53
24892;BME280;12954;50.688;10.908;2022-09-21T07:09:56;96546.19;;;6.24;65.88
24892;BME280;12954;50.688;10.908;2022-09-21T07:12:43;96554.13;;;6.30;65.99
24892;BME280;12954;50.688;10.908;2022-09-21T07:15:11;96534.16;;;6.15;65.93
24892;BME280;12954;50.688;10.908;2022-09-21T07:17:41;96550.66;;;6.41;65.94
24892;BME280;12954;50.688;10.908;2022-09-21T07:20:17;96528.25;;;6.24;66.17
24892;BME280;12954;50.688;10.908;2022-09-21T07:22:46;96560.56;;;6.52;66.21
24892;BME280;12954;50.688;10.908;2022-09-21T07:25:15;96547.50;;;6.44;66.26
24892;BME280;12954;50.688;10.908;2022-09-21T07:27:45;96556.69;;;6.37;66.34
24892;BME280;12954;50.688;10.908;2022-09-21T07:30:14;96557.19;;;6.68;66.44
24892;BME280;12954;50.688;10.908;2022-09-21T07:32:42;96557.34;;;6.74;66.70
24892;BME280;12954;50.688;10.908;2022-09-21T07:35:10;96535.28;;;6.60;66.84
24892;BME280;12954;50.688;10.908;2022-09-21T07:37:39;96523.06;;;6.64;66.76
24892;BME280;12954;50.688;10.908;2022-09-21T07:40:08;96556.78;;;6.95;66.91
24892;BME280;12954;50.688;10.908;2022-09-21T07:42:37;96558.50;;;7.01;66.97
24892;BME280;12954;50.688;10.908;2022-09-21T07:45:08;96561.91;;;7.08;67.12
24892;BME280;12954;50.688;10.908;2022-09-21T07:47:37;96545.22;;;7.06;67.10
24892;BME280;12954;50.688;10.908;2022-09-21T07:50:06;96567.06;;;7.21;67.07
24892;BME280;12954;50.688;10.908;2022-09-21T07:52:34;96555.38;;;7.27;67.12
24892;BME280;12954;50.688;10.908;2022-09-21T07:55:03;96558.16;;;7.32;66.93
24892;BME280;12954;50.688;10.908;2022-09-21T07:57:32;96552.91;;;7.37;67.03
24892;BME280;12954;50.688;10.908;2022-09-21T08:00:19;96550.91;;;7.44;66.84
24892;BME280;12954;50.688;10.908;2022-09-21T08:02:48;96556.13;;;7.51;66.85
24892;BME280;12954;50.688;10.908;2022-09-21T08:05:17;96539.72;;;7.47;66.72
24892;BME280;12954;50.688;10.908;2022-09-21T08:07:45;96556.72;;;7.64;66.82
24892;BME280;12954;50.688;10.908;2022-09-21T08:10:14;96492.34;;;7.30;66.54
24892;BME280;12954;50.688;10.908;2022-09-21T08:12:42;96556.44;;;7.77;66.42
24892;BME280;12954;50.688;10.908;2022-09-21T08:15:10;96564.16;;;7.86;65.98
24892;BME280;12954;50.688;10.908;2022-09-21T08:18:03;96562.38;;;7.91;65.78
24892;BME280;12954;50.688;10.908;2022-09-21T08:20:33;96561.44;;;7.97;65.42
24892;BME280;12954;50.688;10.908;2022-09-21T08:23:01;96567.25;;;8.06;65.13
24892;BME280;12954;50.688;10.908;2022-09-21T08:25:30;96567.59;;;8.09;64.70
24892;BME280;12954;50.688;10.908;2022-09-21T08:28:00;96559.34;;;8.16;64.25
24892;BME280;12954;50.688;10.908;2022-09-21T08:30:35;96532.97;;;8.13;63.90
24892;BME280;12954;50.688;10.908;2022-09-21T08:33:05;96563.91;;;8.44;63.81
24892;BME280;12954;50.688;10.908;2022-09-21T08:35:34;96561.56;;;8.47;63.88
24892;BME280;12954;50.688;10.908;2022-09-21T08:38:02;96563.84;;;8.55;63.64
24892;BME280;12954;50.688;10.908;2022-09-21T08:40:31;96571.50;;;8.63;63.52
24892;BME280;12954;50.688;10.908;2022-09-21T08:43:03;96571.69;;;8.73;63.44
24892;BME280;12954;50.688;10.908;2022-09-21T08:45:39;96574.78;;;8.82;63.39
24892;BME280;12954;50.688;10.908;2022-09-21T08:48:14;96536.72;;;8.73;63.47
24892;BME280;12954;50.688;10.908;2022-09-21T08:50:53;96567.13;;;8.90;63.72
24892;BME280;12954;50.688;10.908;2022-09-21T08:53:25;96568.56;;;8.98;63.66
24892;BME280;12954;50.688;10.908;2022-09-21T08:55:56;96572.75;;;9.06;63.56
24892;BME280;12954;50.688;10.908;2022-09-21T08:58:26;96570.22;;;9.16;63.41
24892;BME280;12954;50.688;10.908;2022-09-21T09:01:05;96580.72;;;9.34;62.73
24892;BME280;12954;50.688;10.908;2022-09-21T09:03:52;96583.00;;;9.42;62.18
24892;BME280;12954;50.688;10.908;2022-09-21T09:06:28;96576.88;;;9.46;61.88
24892;BME280;12954;50.688;10.908;2022-09-21T09:09:17;96587.59;;;9.63;60.77
24892;BME280;12954;50.688;10.908;2022-09-21T09:12:03;96585.78;;;9.69;60.21
24892;BME280;12954;50.688;10.908;2022-09-21T09:14:54;96538.19;;;9.36;59.93
24892;BME280;12954;50.688;10.908;2022-09-21T09:17:35;96578.03;;;9.72;60.07
24892;BME280;12954;50.688;10.908;2022-09-21T09:20:13;96581.94;;;9.81;59.93
24892;BME280;12954;50.688;10.908;2022-09-21T09:22:46;96569.44;;;9.75;59.70
24892;BME280;12954;50.688;10.908;2022-09-21T09:25:18;96583.56;;;9.82;59.64
24892;BME280;12954;50.688;10.908;2022-09-21T09:27:51;96549.84;;;9.58;59.82
24892;BME280;12954;50.688;10.908;2022-09-21T09:30:22;96576.78;;;9.80;59.99
24892;BME280;12954;50.688;10.908;2022-09-21T09:32:56;96574.47;;;9.88;59.98
24892;BME280;12954;50.688;10.908;2022-09-21T09:35:32;96579.47;;;10.01;59.89
24892;BME280;12954;50.688;10.908;2022-09-21T09:38:08;96574.22;;;10.12;59.52
24892;BME280;12954;50.688;10.908;2022-09-21T09:40:50;96579.69;;;10.22;59.46
24892;BME280;12954;50.688;10.908;2022-09-21T09:43:32;96583.59;;;10.31;59.33
24892;BME280;12954;50.688;10.908;2022-09-21T09:46:10;96574.44;;;10.32;59.03
24892;BME280;12954;50.688;10.908;2022-09-21T09:48:56;96571.81;;;10.37;59.26
24892;BME280;12954;50.688;10.908;2022-09-21T09:51:27;96579.94;;;10.42;59.26
24892;BME280;12954;50.688;10.908;2022-09-21T09:53:58;96577.06;;;10.48;58.86
24892;BME280;12954;50.688;10.908;2022-09-21T09:56:27;96574.72;;;10.57;58.54
24892;BME280;12954;50.688;10.908;2022-09-21T09:58:59;96573.69;;;10.63;58.13
24892;BME280;12954;50.688;10.908;2022-09-21T10:01:39;96583.72;;;10.68;58.08
24892;BME280;12954;50.688;10.908;2022-09-21T10:04:10;96582.94;;;10.72;57.96
24892;BME280;12954;50.688;10.908;2022-09-21T10:06:40;96584.97;;;10.87;57.54
24892;BME280;12954;50.688;10.908;2022-09-21T10:09:23;96582.56;;;10.90;57.12
24892;BME280;12954;50.688;10.908;2022-09-21T10:11:52;96580.34;;;10.82;57.06
24892;BME280;12954;50.688;10.908;2022-09-21T10:14:23;96581.97;;;10.83;56.74
24892;BME280;12954;50.688;10.908;2022-09-21T10:16:55;96582.28;;;10.87;56.19
24892;BME280;12954;50.688;10.908;2022-09-21T10:19:26;96578.72;;;10.81;55.91
24892;BME280;12954;50.688;10.908;2022-09-21T10:21:59;96579.31;;;10.88;55.65
24892;BME280;12954;50.688;10.908;2022-09-21T10:24:30;96554.31;;;10.71;55.34
24892;BME280;12954;50.688;10.908;2022-09-21T10:27:05;96584.50;;;10.95;54.73
24892;BME280;12954;50.688;10.908;2022-09-21T10:29:41;96563.06;;;10.83;53.87
24892;BME280;12954;50.688;10.908;2022-09-21T10:32:20;96508.84;;;10.53;53.83
24892;BME280;12954;50.688;10.908;2022-09-21T10:35:01;96579.50;;;11.08;53.71
24892;BME280;12954;50.688;10.908;2022-09-21T10:37:42;96584.13;;;11.18;52.90
24892;BME280;12954;50.688;10.908;2022-09-21T10:40:24;96555.13;;;11.03;52.41
24892;BME280;12954;50.688;10.908;2022-09-21T10:42:54;96573.56;;;11.11;52.25
24892;BME280;12954;50.688;10.908;2022-09-21T10:45:25;96546.91;;;10.88;52.76
24892;BME280;12954;50.688;10.908;2022-09-21T10:47:56;96571.97;;;11.15;52.71
24892;BME280;12954;50.688;10.908;2022-09-21T10:50:28;96577.41;;;11.21;52.60
24892;BME280;12954;50.688;10.908;2022-09-21T10:53:02;96563.84;;;11.10;52.73
24892;BME280;12954;50.688;10.908;2022-09-21T10:55:39;96576.88;;;11.24;52.48
24892;BME280;12954;50.688;10.908;2022-09-21T10:58:29;96571.22;;;11.25;52.49
24892;BME280;12954;50.688;10.908;2022-09-21T11:01:09;96569.13;;;11.32;52.33
24892;BME280;12954;50.688;10.908;2022-09-21T11:03:46;96568.31;;;11.32;52.30
24892;BME280;12954;50.688;10.908;2022-09-21T11:06:21;96570.53;;;11.40;51.86
24892;BME280;12954;50.688;10.908;2022-09-21T11:08:57;96576.44;;;11.37;51.91
24892;BME280;12954;50.688;10.908;2022-09-21T11:11:45;96570.81;;;11.43;51.63
24892;BME280;12954;50.688;10.908;2022-09-21T11:14:25;96560.81;;;11.44;51.98
24892;BME280;12954;50.688;10.908;2022-09-21T11:16:58;96557.63;;;11.47;51.76
24892;BME280;12954;50.688;10.908;2022-09-21T11:19:34;96553.78;;;11.43;51.60
24892;BME280;12954;50.688;10.908;2022-09-21T11:22:08;96568.75;;;11.55;50.97
24892;BME280;12954;50.688;10.908;2022-09-21T11:24:45;96555.28;;;11.60;50.42
24892;BME280;12954;50.688;10.908;2022-09-21T11:27:20;96547.38;;;11.49;50.15
24892;BME280;12954;50.688;10.908;2022-09-21T11:29:59;96558.22;;;11.59;50.06
24892;BME280;12954;50.688;10.908;2022-09-21T11:32:38;96559.56;;;11.56;50.45
24892;BME280;12954;50.688;10.908;2022-09-21T11:35:38;96563.88;;;11.52;50.22
24892;BME280;12954;50.688;10.908;2022-09-21T11:38:24;96567.03;;;11.44;50.35
24892;BME280;12954;50.688;10.908;2022-09-21T11:41:17;96564.31;;;11.44;50.79
24892;BME280;12954;50.688;10.908;2022-09-21T11:44:11;96553.78;;;11.43;50.69
24892;BME280;12954;50.688;10.908;2022-09-21T11:46:49;96552.81;;;11.59;50.74
24892;BME280;12954;50.688;10.908;2022-09-21T11:49:35;96558.88;;;11.81;49.41
24892;BME280;12954;50.688;10.908;2022-09-21T11:52:19;96538.84;;;11.72;49.09
24892;BME280;12954;50.688;10.908;2022-09-21T11:55:14;96550.25;;;11.84;48.82
24892;BME280;12954;50.688;10.908;2022-09-21T11:57:55;96543.81;;;12.00;48.45
24892;BME280;12954;50.688;10.908;2022-09-21T12:00:26;96498.28;;;11.72;48.13
24892;BME280;12954;50.688;10.908;2022-09-21T12:03:25;96547.09;;;12.12;48.05
24892;BME280;12954;50.688;10.908;2022-09-21T12:06:15;96494.81;;;11.87;47.71
24892;BME280;12954;50.688;10.908;2022-09-21T12:08:56;96415.97;;;11.38;48.19
24892;BME280;12954;50.688;10.908;2022-09-21T12:11:34;96536.06;;;12.29;48.33
24892;BME280;12954;50.688;10.908;2022-09-21T12:14:13;96529.88;;;12.49;48.13
24892;BME280;12954;50.688;10.908;2022-09-21T12:16:48;96536.97;;;12.70;48.04
24892;BME280;12954;50.688;10.908;2022-09-21T12:19:25;96539.94;;;12.84;47.49
24892;BME280;12954;50.688;10.908;2022-09-21T12:22:04;96532.91;;;12.88;47.23
24892;BME280;12954;50.688;10.908;2022-09-21T12:24:38;96526.16;;;12.90;47.17
24892;BME280;12954;50.688;10.908;2022-09-21T12:27:18;96534.25;;;12.95;46.25
24892;BME280;12954;50.688;10.908;2022-09-21T12:29:52;96532.66;;;12.84;46.27
24892;BME280;12954;50.688;10.908;2022-09-21T12:32:25;96531.28;;;12.87;46.29
24892;BME280;12954;50.688;10.908;2022-09-21T12:34:59;96535.91;;;12.96;46.38
24892;BME280;12954;50.688;10.908;2022-09-21T12:37:32;96531.00;;;13.13;46.33
24892;BME280;12954;50.688;10.908;2022-09-21T12:40:06;96526.38;;;13.34;45.57
24892;BME280;12954;50.688;10.908;2022-09-21T12:42:45;96529.06;;;13.34;45.66
24892;BME280;12954;50.688;10.908;2022-09-21T12:45:21;96528.28;;;13.28;45.66
24892;BME280;12954;50.688;10.908;2022-09-21T12:47:56;96521.75;;;13.34;44.88
24892;BME280;12954;50.688;10.908;2022-09-21T12:50:39;96520.66;;;13.35;43.49
24892;BME280;12954;50.688;10.908;2022-09-21T12:53:11;96517.47;;;12.98;44.37
24892;BME280;12954;50.688;10.908;2022-09-21T12:55:49;96502.31;;;12.67;44.48
24892;BME280;12954;50.688;10.908;2022-09-21T12:58:36;96526.94;;;12.70;44.42
24892;BME280;12954;50.688;10.908;2022-09-21T13:01:18;96518.03;;;12.70;44.94
24892;BME280;12954;50.688;10.908;2022-09-21T13:04:03;96513.69;;;12.69;44.82
24892;BME280;12954;50.688;10.908;2022-09-21T13:09:31;96505.00;;;12.77;45.12
24892;BME280;12954;50.688;10.908;2022-09-21T13:12:01;96471.41;;;12.43;45.16
24892;BME280;12954;50.688;10.908;2022-09-21T13:14:41;96510.44;;;12.87;44.60
24892;BME280;12954;50.688;10.908;2022-09-21T13:17:19;96505.56;;;12.84;44.10
24892;BME280;12954;50.688;10.908;2022-09-21T13:20:00;96510.16;;;12.78;43.97
24892;BME280;12954;50.688;10.908;2022-09-21T13:22:31;96502.84;;;12.64;44.36
24892;BME280;12954;50.688;10.908;2022-09-21T13:25:03;96504.50;;;12.70;44.72
24892;BME280;12954;50.688;10.908;2022-09-21T13:27:54;96509.34;;;12.83;43.78
24892;BME280;12954;50.688;10.908;2022-09-21T13:30:38;96502.31;;;12.77;43.58
24892;BME280;12954;50.688;10.908;2022-09-21T13:33:36;96510.69;;;12.70;43.78
24892;BME280;12954;50.688;10.908;2022-09-21T13:36:29;96503.41;;;12.76;43.74
24892;BME280;12954;50.688;10.908;2022-09-21T13:39:14;96503.94;;;12.78;43.27